Time;durP1;ratioP1;P1;durP2;ratioP2;P2;SDS_P1;SDS_P2;PMS_P1;PMS_P2;Temp;Humidity;BMP_temperature;BMP_pressure;BME280_temperature;BME280_humidity;BME280_pressure;Samples;Min_cycle;Max_cycle;Signal;HPM_P1;HPM_P2
2023/04/23 00:00:12;;;;;;;2.63;1.55;;;9.00;99.90;;;;;;5028470;28;20045;-62
2023/04/23 00:02:38;;;;;;;1.70;1.25;;;9.00;99.90;;;;;;5019544;28;20053;-62
2023/04/23 00:05:05;;;;;;;0.60;0.55;;;9.00;99.90;;;;;;5032209;28;20072;-62
2023/04/23 00:07:32;;;;;;;0.73;0.73;;;8.90;99.90;;;;;;5028404;28;20037;-62
2023/04/23 00:09:59;;;;;;;1.90;1.13;;;8.90;99.90;;;;;;5026100;28;20041;-64
2023/04/23 00:12:26;;;;;;;0.75;0.65;;;8.90;99.90;;;;;;5020970;28;20050;-62
2023/04/23 00:14:52;;;;;;;0.40;0.40;;;8.90;99.90;;;;;;5031760;28;20045;-62
2023/04/23 00:17:18;;;;;;;0.73;0.68;;;8.90;99.90;;;;;;5032166;28;20042;-63
2023/04/23 00:19:44;;;;;;;0.38;0.38;;;8.90;99.90;;;;;;5024397;28;20043;-63
2023/04/23 00:22:09;;;;;;;4.53;1.38;;;8.80;99.90;;;;;;5025082;28;20132;-62
2023/04/23 00:24:37;;;;;;;0.20;0.20;;;8.80;99.90;;;;;;5020260;28;20041;-62
2023/04/23 00:27:03;;;;;;;0.55;0.55;;;8.80;99.90;;;;;;5024537;28;20504;-62
2023/04/23 00:29:29;;;;;;;1.90;1.45;;;8.80;99.90;;;;;;5029460;28;20068;-62
2023/04/23 00:31:54;;;;;;;2.92;1.00;;;8.70;99.90;;;;;;5025875;28;20583;-62
2023/04/23 00:34:20;;;;;;;0.73;0.73;;;8.70;99.90;;;;;;5021630;28;20408;-62
2023/04/23 00:36:45;;;;;;;0.20;0.20;;;8.70;99.90;;;;;;5028737;28;20069;-63
2023/04/23 00:39:11;;;;;;;0.73;0.73;;;8.70;99.90;;;;;;5018478;28;20045;-62
2023/04/23 00:41:37;;;;;;;1.10;0.80;;;8.70;99.90;;;;;;5019733;28;20433;-62
2023/04/23 00:44:02;;;;;;;0.45;0.45;;;8.60;99.90;;;;;;5028141;28;20072;-62
2023/04/23 00:46:28;;;;;;;2.47;1.65;;;8.60;99.90;;;;;;5017280;28;20060;-62
2023/04/23 00:48:54;;;;;;;0.65;0.65;;;8.60;99.90;;;;;;5030354;28;20103;-62
2023/04/23 00:51:23;;;;;;;3.47;2.60;;;8.50;99.90;;;;;;5030952;28;20069;-62
2023/04/23 00:53:49;;;;;;;2.08;1.98;;;8.60;99.90;;;;;;5027097;28;20398;-62
2023/04/23 00:56:16;;;;;;;0.73;0.73;;;8.70;99.90;;;;;;5018309;28;20061;-62
2023/04/23 00:58:43;;;;;;;1.13;1.05;;;8.60;99.90;;;;;;5023002;28;20064;-62
2023/04/23 01:01:09;;;;;;;1.17;1.17;;;8.60;99.90;;;;;;5022129;28;20044;-62
2023/04/23 01:03:37;;;;;;;2.58;2.38;;;8.60;99.90;;;;;;5026431;28;20046;-62
2023/04/23 01:06:03;;;;;;;1.63;1.55;;;8.60;99.90;;;;;;5031238;28;20397;-62
2023/04/23 01:08:31;;;;;;;1.77;0.95;;;8.60;99.90;;;;;;5026823;28;20382;-62
2023/04/23 01:10:57;;;;;;;3.40;2.90;;;8.70;99.90;;;;;;5030314;28;20041;-62
2023/04/23 01:13:28;;;;;;;0.22;0.22;;;8.60;99.90;;;;;;5032152;28;20042;-62
2023/04/23 01:15:54;;;;;;;1.95;1.85;;;8.60;99.90;;;;;;5022106;28;20054;-62
2023/04/23 01:18:20;;;;;;;1.75;1.65;;;8.60;99.90;;;;;;5030155;28;20080;-62
2023/04/23 01:20:46;;;;;;;0.63;0.63;;;8.60;99.90;;;;;;5027901;28;20136;-62
2023/04/23 01:23:11;;;;;;;0.52;0.52;;;8.60;99.90;;;;;;5024452;28;20050;-62
2023/04/23 01:25:37;;;;;;;0.45;0.45;;;8.50;99.90;;;;;;5029029;28;20045;-62
2023/04/23 01:28:05;;;;;;;0.30;0.30;;;8.50;99.90;;;;;;5018982;28;20555;-62
2023/04/23 01:30:32;;;;;;;7.50;1.67;;;8.50;99.90;;;;;;5016437;28;20056;-62
2023/04/23 01:32:58;;;;;;;2.30;2.08;;;8.50;99.90;;;;;;5025996;28;20437;-62
2023/04/23 01:35:24;;;;;;;2.75;1.83;;;8.50;99.90;;;;;;5024051;28;20051;-62
2023/04/23 01:37:51;;;;;;;1.73;0.57;;;8.40;99.90;;;;;;5015910;28;20033;-62
2023/04/23 01:40:17;;;;;;;2.08;0.95;;;8.40;99.90;;;;;;5019688;28;20088;-62
2023/04/23 01:42:43;;;;;;;0.98;0.98;;;8.40;99.90;;;;;;5030193;28;20061;-62
2023/04/23 01:45:09;;;;;;;5.45;1.30;;;8.40;99.90;;;;;;5023274;28;20552;-62
2023/04/23 01:47:35;;;;;;;0.68;0.68;;;8.40;99.90;;;;;;5027593;28;20060;-62
2023/04/23 01:50:01;;;;;;;1.08;0.38;;;8.30;99.90;;;;;;5015648;28;20077;-62
2023/04/23 01:52:27;;;;;;;0.50;0.50;;;8.30;99.90;;;;;;5026660;28;20547;-62
2023/04/23 01:54:52;;;;;;;0.68;0.68;;;8.30;99.90;;;;;;5034115;28;20068;-62
2023/04/23 01:57:25;;;;;;;11.23;1.50;;;8.30;99.90;;;;;;5023943;28;20045;-62
2023/04/23 02:00:07;;;;;;;0.93;0.68;;;8.30;99.90;;;;;;5025378;28;20073;-62
2023/04/23 02:02:33;;;;;;;0.40;0.40;;;8.20;99.90;;;;;;5012726;28;20485;-62
2023/04/23 02:05:03;;;;;;;2.05;1.95;;;8.30;99.90;;;;;;5014323;28;20049;-62
2023/04/23 02:07:30;;;;;;;1.42;1.33;;;8.30;99.90;;;;;;5027268;28;20045;-63
2023/04/23 02:09:55;;;;;;;0.30;0.30;;;8.20;99.90;;;;;;5029844;28;20053;-62
2023/04/23 02:12:21;;;;;;;2.10;2.00;;;8.20;99.90;;;;;;5025908;28;20418;-62
2023/04/23 02:14:46;;;;;;;3.20;0.57;;;8.20;99.90;;;;;;5015445;28;20088;-62
2023/04/23 02:17:12;;;;;;;5.00;2.35;;;8.20;99.90;;;;;;5026469;28;20053;-62
2023/04/23 02:19:37;;;;;;;1.65;1.20;;;8.20;99.90;;;;;;5022785;28;20485;-62
2023/04/23 02:22:03;;;;;;;4.70;1.70;;;8.20;99.90;;;;;;5026354;28;20119;-62
2023/04/23 02:24:29;;;;;;;1.50;1.40;;;8.30;99.90;;;;;;5043419;28;20063;-62
2023/04/23 02:26:54;;;;;;;0.38;0.38;;;8.20;99.90;;;;;;5025017;28;20452;-62
2023/04/23 02:29:20;;;;;;;0.45;0.45;;;8.30;99.90;;;;;;5025231;28;20044;-62
2023/04/23 02:31:45;;;;;;;0.20;0.20;;;8.30;99.90;;;;;;5014872;28;20045;-62
2023/04/23 02:34:11;;;;;;;4.78;4.28;;;8.30;99.90;;;;;;5014751;28;20042;-62
2023/04/23 02:36:37;;;;;;;13.68;1.35;;;8.30;99.90;;;;;;5017810;28;20041;-62
2023/04/23 02:39:02;;;;;;;3.70;2.17;;;8.40;99.90;;;;;;5026871;28;20360;-62
2023/04/23 02:41:28;;;;;;;0.30;0.30;;;8.40;99.90;;;;;;5028802;28;20047;-62
2023/04/23 02:43:54;;;;;;;1.33;1.27;;;8.40;99.90;;;;;;5013727;28;20033;-62
2023/04/23 02:46:19;;;;;;;1.80;1.70;;;8.30;99.90;;;;;;5011619;28;20135;-62
2023/04/23 02:48:45;;;;;;;0.30;0.30;;;8.30;99.90;;;;;;5019026;28;20034;-62
2023/04/23 02:51:12;;;;;;;0.63;0.63;;;8.30;99.90;;;;;;5023691;28;20137;-62
2023/04/23 02:53:38;;;;;;;0.95;0.77;;;8.30;99.90;;;;;;5031219;28;20049;-62
2023/04/23 02:56:03;;;;;;;0.47;0.47;;;8.40;99.90;;;;;;5023562;28;20052;-63
2023/04/23 02:58:30;;;;;;;0.30;0.30;;;8.30;99.90;;;;;;5025885;28;20477;-62
2023/04/23 03:00:56;;;;;;;0.35;0.35;;;8.40;99.90;;;;;;5020389;28;20092;-62
2023/04/23 03:03:25;;;;;;;0.52;0.52;;;8.40;99.90;;;;;;5018692;28;20041;-62
2023/04/23 03:05:51;;;;;;;1.63;1.52;;;8.40;99.90;;;;;;5021751;28;20053;-62
2023/04/23 03:08:16;;;;;;;0.82;0.82;;;8.40;99.90;;;;;;5027582;28;20493;-62
2023/04/23 03:10:42;;;;;;;1.27;1.27;;;8.50;99.90;;;;;;5028414;28;20092;-62
2023/04/23 03:13:08;;;;;;;2.03;1.85;;;8.50;99.90;;;;;;5023079;28;20052;-62
2023/04/23 03:15:34;;;;;;;0.52;0.45;;;8.60;99.90;;;;;;5021318;28;20120;-62
2023/04/23 03:18:00;;;;;;;1.90;1.80;;;8.60;99.90;;;;;;5026450;28;20489;-62
2023/04/23 03:20:26;;;;;;;2.30;2.17;;;8.50;99.90;;;;;;5028828;28;20047;-62
2023/04/23 03:22:52;;;;;;;4.45;3.10;;;8.50;99.90;;;;;;5024893;28;20048;-62
2023/04/23 03:25:19;;;;;;;1.58;1.48;;;8.50;99.90;;;;;;5015647;28;20041;-62
2023/04/23 03:27:44;;;;;;;5.05;1.58;;;8.50;99.90;;;;;;5022067;28;20517;-62
2023/04/23 03:30:10;;;;;;;1.88;1.35;;;8.50;99.90;;;;;;5022251;28;20041;-62
2023/04/23 03:32:37;;;;;;;0.40;0.40;;;8.60;99.90;;;;;;5016810;28;20037;-62
2023/04/23 03:35:03;;;;;;;0.60;0.60;;;8.50;99.90;;;;;;5019243;28;20089;-62
2023/04/23 03:37:28;;;;;;;1.55;1.50;;;8.50;99.90;;;;;;5016599;28;20040;-62
2023/04/23 03:39:54;;;;;;;0.70;0.63;;;8.50;99.90;;;;;;5021088;28;20404;-62
2023/04/23 03:42:19;;;;;;;1.33;1.30;;;8.60;99.90;;;;;;5025096;28;20677;-62
2023/04/23 03:44:45;;;;;;;4.20;1.88;;;8.50;99.90;;;;;;5027628;28;20084;-62
2023/04/23 03:47:10;;;;;;;2.72;2.20;;;8.60;99.90;;;;;;5017537;28;20558;-62
2023/04/23 03:49:37;;;;;;;2.08;1.45;;;8.60;99.90;;;;;;5023847;28;20441;-62
2023/04/23 03:52:03;;;;;;;3.00;1.98;;;8.60;99.90;;;;;;5016114;28;20101;-62
2023/04/23 03:54:28;;;;;;;1.95;1.85;;;8.70;99.90;;;;;;5022018;28;20045;-62
2023/04/23 03:56:54;;;;;;;0.85;0.85;;;8.70;99.90;;;;;;5018526;28;20148;-62
2023/04/23 03:59:20;;;;;;;1.13;1.05;;;8.70;99.90;;;;;;5026826;28;20049;-62
2023/04/23 04:01:49;;;;;;;1.63;1.52;;;8.80;99.90;;;;;;5027829;28;20144;-62
2023/04/23 04:04:14;;;;;;;0.93;0.93;;;8.80;99.90;;;;;;5017080;28;20052;-62
2023/04/23 04:06:40;;;;;;;0.80;0.80;;;8.80;99.90;;;;;;5019616;28;20053;-63
2023/04/23 04:09:07;;;;;;;1.98;1.88;;;8.80;99.90;;;;;;5012023;28;20041;-62
2023/04/23 04:11:32;;;;;;;1.77;1.67;;;8.80;99.90;;;;;;5015421;28;20503;-62
2023/04/23 04:13:58;;;;;;;1.52;1.50;;;8.80;99.90;;;;;;5019585;28;20052;-62
2023/04/23 04:16:24;;;;;;;1.45;1.35;;;8.90;99.90;;;;;;5027396;28;20037;-62
2023/04/23 04:18:49;;;;;;;1.25;1.15;;;8.80;99.90;;;;;;5017608;28;20095;-62
2023/04/23 04:21:16;;;;;;;3.95;1.33;;;8.90;99.90;;;;;;5013810;28;20041;-62
2023/04/23 04:23:43;;;;;;;1.65;1.55;;;8.90;99.90;;;;;;5012385;28;20128;-62
2023/04/23 04:26:09;;;;;;;2.00;1.75;;;8.90;99.90;;;;;;5014457;28;20189;-62
2023/04/23 04:28:36;;;;;;;2.90;2.72;;;8.90;99.90;;;;;;5023680;28;20056;-62
2023/04/23 04:31:04;;;;;;;7.25;3.15;;;8.80;99.90;;;;;;5025453;28;20085;-62
2023/04/23 04:33:29;;;;;;;1.13;1.02;;;8.90;99.90;;;;;;5027715;28;20049;-62
2023/04/23 04:35:56;;;;;;;3.55;2.42;;;8.90;99.90;;;;;;5014474;28;20034;-62
2023/04/23 04:38:22;;;;;;;5.25;3.85;;;8.90;99.90;;;;;;5018642;28;20038;-62
2023/04/23 04:40:48;;;;;;;0.80;0.80;;;8.90;99.90;;;;;;5014689;28;20056;-62
2023/04/23 04:43:15;;;;;;;1.33;1.23;;;9.00;99.90;;;;;;5019259;28;20451;-62
2023/04/23 04:45:41;;;;;;;2.40;2.28;;;9.00;99.90;;;;;;5022240;28;20060;-62
2023/04/23 04:48:07;;;;;;;2.38;2.28;;;9.00;99.90;;;;;;5031827;28;20049;-62
2023/04/23 04:50:33;;;;;;;2.47;2.28;;;9.00;99.90;;;;;;5027361;28;20044;-62
2023/04/23 04:52:58;;;;;;;0.70;0.70;;;9.00;99.90;;;;;;5027233;28;20150;-62
2023/04/23 04:55:24;;;;;;;7.53;2.97;;;9.00;99.90;;;;;;5026287;28;20037;-62
2023/04/23 04:57:50;;;;;;;1.60;1.23;;;9.00;99.90;;;;;;5031420;28;20077;-62
2023/04/23 05:00:23;;;;;;;5.10;3.63;;;9.00;99.90;;;;;;5029277;28;20033;-62
2023/04/23 05:02:51;;;;;;;2.95;2.75;;;9.00;99.90;;;;;;5015630;28;20054;-62
2023/04/23 05:05:19;;;;;;;4.93;2.58;;;9.10;99.90;;;;;;5019664;28;20088;-62
2023/04/23 05:07:44;;;;;;;2.50;2.30;;;9.10;99.90;;;;;;5028335;28;20053;-62
2023/04/23 05:10:10;;;;;;;3.47;2.67;;;9.10;99.90;;;;;;5017854;28;20060;-62
2023/04/23 05:12:40;;;;;;;4.22;2.95;;;9.10;99.90;;;;;;5026747;28;20147;-62
2023/04/23 05:15:09;;;;;;;7.65;3.15;;;9.10;99.90;;;;;;5023580;28;20049;-63
2023/04/23 05:17:36;;;;;;;3.53;2.17;;;9.10;99.90;;;;;;5023391;28;20049;-62
2023/04/23 05:20:02;;;;;;;4.53;2.00;;;9.10;99.90;;;;;;5025064;28;20052;-62
2023/04/23 05:22:28;;;;;;;3.72;2.70;;;9.10;99.90;;;;;;5022504;28;20057;-62
2023/04/23 05:24:53;;;;;;;2.75;2.55;;;9.10;99.90;;;;;;5026482;28;20045;-62
2023/04/23 05:27:19;;;;;;;2.35;1.85;;;9.20;99.90;;;;;;5028398;28;20052;-62
2023/04/23 05:29:45;;;;;;;6.88;2.03;;;9.20;99.90;;;;;;5027226;28;20037;-62
2023/04/23 05:32:11;;;;;;;2.10;1.95;;;9.20;99.90;;;;;;5023290;28;20060;-62
2023/04/23 05:34:36;;;;;;;2.78;1.95;;;9.30;99.90;;;;;;5019017;28;20392;-62
2023/04/23 05:37:02;;;;;;;2.92;1.50;;;9.30;99.90;;;;;;5021822;28;20408;-62
2023/04/23 05:39:27;;;;;;;5.55;2.22;;;9.40;99.90;;;;;;5016004;28;20046;-62
2023/04/23 05:41:53;;;;;;;0.75;0.75;;;9.40;99.90;;;;;;5020724;28;20046;-62
2023/04/23 05:44:18;;;;;;;0.90;0.90;;;9.40;99.90;;;;;;5026805;28;20072;-62
2023/04/23 05:46:44;;;;;;;0.77;0.77;;;9.40;99.90;;;;;;5015693;28;20492;-62
2023/04/23 05:49:09;;;;;;;4.22;1.75;;;9.40;99.90;;;;;;5028476;28;20124;-62
2023/04/23 05:51:35;;;;;;;2.20;2.08;;;9.40;99.90;;;;;;5017512;28;20046;-62
2023/04/23 05:54:01;;;;;;;1.73;1.63;;;9.40;99.90;;;;;;5027579;28;20061;-62
2023/04/23 05:56:27;;;;;;;1.13;1.13;;;9.40;99.90;;;;;;5016592;28;20080;-62
2023/04/23 05:58:52;;;;;;;1.08;1.05;;;9.40;99.90;;;;;;5027479;28;20489;-62
2023/04/23 06:01:18;;;;;;;0.85;0.85;;;9.40;99.90;;;;;;5026962;28;20036;-62
2023/04/23 06:03:44;;;;;;;0.95;0.95;;;9.50;99.90;;;;;;5027551;28;20115;-62
2023/04/23 06:06:13;;;;;;;2.08;1.95;;;9.50;99.90;;;;;;5015617;28;20081;-62
2023/04/23 06:08:38;;;;;;;1.10;1.10;;;9.60;99.90;;;;;;5024100;28;20440;-62
2023/04/23 06:11:05;;;;;;;0.40;0.40;;;9.70;99.90;;;;;;5017190;28;20034;-62
2023/04/23 06:13:30;;;;;;;0.47;0.47;;;9.80;99.90;;;;;;5029615;28;20048;-62
2023/04/23 06:15:57;;;;;;;1.52;1.45;;;9.80;99.90;;;;;;5020722;28;20045;-62
2023/04/23 06:18:22;;;;;;;1.33;1.33;;;9.80;99.90;;;;;;5021645;28;20053;-62
2023/04/23 06:20:50;;;;;;;1.58;1.35;;;9.90;99.90;;;;;;5020860;28;20045;-63
2023/04/23 06:23:16;;;;;;;2.40;2.03;;;9.90;99.90;;;;;;5022644;28;20049;-62
2023/04/23 06:25:42;;;;;;;1.17;1.17;;;10.00;99.90;;;;;;5025188;28;20500;-62
2023/04/23 06:28:07;;;;;;;2.97;2.67;;;10.00;99.90;;;;;;5017191;28;20076;-62
2023/04/23 06:30:33;;;;;;;0.85;0.85;;;10.00;99.90;;;;;;5024831;28;20048;-63
2023/04/23 06:33:01;;;;;;;4.25;1.83;;;10.10;99.90;;;;;;5025668;28;20450;-62
2023/04/23 06:35:26;;;;;;;1.38;0.80;;;10.10;99.90;;;;;;5019601;28;20121;-62
2023/04/23 06:37:52;;;;;;;0.75;0.75;;;10.10;99.90;;;;;;5024064;28;20140;-63
2023/04/23 06:40:17;;;;;;;1.75;1.65;;;10.20;99.90;;;;;;5029843;28;20564;-62
2023/04/23 06:42:44;;;;;;;3.72;1.85;;;10.20;99.90;;;;;;5028763;28;20045;-63
2023/04/23 06:45:10;;;;;;;1.38;1.27;;;10.20;99.90;;;;;;5025151;28;20045;-63
2023/04/23 06:47:36;;;;;;;3.13;2.30;;;10.20;99.90;;;;;;5029980;28;20436;-63
2023/04/23 06:50:02;;;;;;;5.38;1.42;;;10.20;99.90;;;;;;5021136;28;20045;-62
2023/04/23 06:52:27;;;;;;;1.67;1.58;;;10.20;99.90;;;;;;5021962;28;20500;-63
2023/04/23 06:54:53;;;;;;;3.03;2.63;;;10.30;99.90;;;;;;5022089;28;20041;-63
2023/04/23 06:57:19;;;;;;;1.02;1.02;;;10.30;99.90;;;;;;5026686;28;20080;-63
2023/04/23 06:59:44;;;;;;;1.25;1.23;;;10.30;99.90;;;;;;5027918;28;20045;-63
2023/04/23 07:02:10;;;;;;;0.10;0.10;;;10.40;99.90;;;;;;5015289;28;20075;-63
2023/04/23 07:04:35;;;;;;;0.52;0.50;;;10.40;99.90;;;;;;5021374;28;20048;-63
2023/04/23 07:07:02;;;;;;;1.73;1.60;;;10.50;99.90;;;;;;5020830;28;20503;-63
2023/04/23 07:09:27;;;;;;;0.75;0.75;;;10.50;99.90;;;;;;5028360;28;20052;-63
2023/04/23 07:11:53;;;;;;;1.02;1.02;;;10.50;99.90;;;;;;5024326;28;20508;-63
2023/04/23 07:14:19;;;;;;;3.28;2.88;;;10.50;99.90;;;;;;5021398;28;20045;-63
2023/04/23 07:16:45;;;;;;;0.95;0.95;;;10.60;99.90;;;;;;5012274;28;20065;-63
2023/04/23 07:19:10;;;;;;;1.08;1.05;;;10.60;99.90;;;;;;5022938;28;20037;-62
2023/04/23 07:21:36;;;;;;;0.73;0.73;;;10.60;99.90;;;;;;5015262;28;20051;-63
2023/04/23 07:24:10;;;;;;;2.28;1.27;;;10.70;99.90;;;;;;5019907;28;20040;-63
2023/04/23 07:26:36;;;;;;;1.00;1.00;;;10.80;99.90;;;;;;5023669;28;20037;-63
2023/04/23 07:29:03;;;;;;;2.25;1.65;;;11.00;99.90;;;;;;5027913;28;20049;-63
2023/04/23 07:31:28;;;;;;;4.85;2.63;;;11.10;99.90;;;;;;5019340;28;20053;-63
2023/04/23 07:33:55;;;;;;;0.43;0.43;;;11.10;99.90;;;;;;5018920;28;20045;-62
2023/04/23 07:36:21;;;;;;;1.20;0.85;;;11.10;99.90;;;;;;5018039;28;20092;-64
2023/04/23 07:38:46;;;;;;;4.03;2.25;;;11.10;99.90;;;;;;5023759;28;20501;-63
2023/04/23 07:41:12;;;;;;;1.90;1.80;;;11.10;99.90;;;;;;5017979;28;20073;-63
2023/04/23 07:43:39;;;;;;;1.08;1.08;;;11.20;99.90;;;;;;5026292;28;20511;-63
2023/04/23 07:46:06;;;;;;;1.00;1.00;;;11.30;99.90;;;;;;5036003;28;20041;-63
2023/04/23 07:48:33;;;;;;;2.58;1.92;;;11.30;99.90;;;;;;5014010;28;20081;-63
2023/04/23 07:50:59;;;;;;;0.95;0.95;;;11.40;99.90;;;;;;5026139;28;20478;-64
2023/04/23 07:53:27;;;;;;;12.13;3.58;;;11.40;99.90;;;;;;5020889;28;20081;-63
2023/04/23 07:55:54;;;;;;;2.22;2.13;;;11.50;99.90;;;;;;5019189;28;20050;-63
2023/04/23 07:58:20;;;;;;;1.10;1.10;;;11.70;99.90;;;;;;5028290;28;20081;-63
2023/04/23 08:00:45;;;;;;;1.17;1.13;;;11.70;99.90;;;;;;5021530;28;20076;-63
2023/04/23 08:03:11;;;;;;;1.05;1.05;;;11.80;99.90;;;;;;5027903;28;20038;-63
2023/04/23 08:05:37;;;;;;;1.00;1.00;;;11.80;99.90;;;;;;5018424;28;20113;-63
2023/04/23 08:08:03;;;;;;;1.90;1.70;;;11.90;99.90;;;;;;5020454;28;20049;-63
2023/04/23 08:10:29;;;;;;;4.80;2.10;;;11.90;99.90;;;;;;5022294;28;20379;-63
2023/04/23 08:12:54;;;;;;;1.88;1.77;;;12.10;99.90;;;;;;5029277;28;20085;-63
2023/04/23 08:15:20;;;;;;;0.80;0.80;;;12.10;99.90;;;;;;5029537;28;20045;-63
2023/04/23 08:17:45;;;;;;;0.90;0.90;;;12.10;99.90;;;;;;5020067;28;20059;-63
2023/04/23 08:20:11;;;;;;;1.85;1.75;;;12.30;99.90;;;;;;5022011;28;20092;-63
2023/04/23 08:22:37;;;;;;;1.00;1.00;;;12.30;99.90;;;;;;5027066;28;20098;-63
2023/04/23 08:25:03;;;;;;;2.45;1.67;;;12.40;99.90;;;;;;5017468;28;20042;-63
2023/04/23 08:27:29;;;;;;;3.72;2.30;;;12.40;99.90;;;;;;5025952;28;20089;-63
2023/04/23 08:29:55;;;;;;;0.88;0.88;;;12.60;99.90;;;;;;5027101;28;20038;-63
2023/04/23 08:32:20;;;;;;;1.63;0.85;;;12.80;99.90;;;;;;5026271;28;20822;-63
2023/04/23 08:34:46;;;;;;;2.88;1.02;;;13.20;99.90;;;;;;5026048;28;20401;-63
2023/04/23 08:37:12;;;;;;;1.33;1.25;;;13.70;99.90;;;;;;5021671;28;20045;-63
2023/04/23 08:39:37;;;;;;;1.40;1.10;;;14.30;99.90;;;;;;5030933;28;20032;-63
2023/04/23 08:42:32;;;;;;;1.13;1.13;;;14.50;99.90;;;;;;5024188;28;20052;-63
2023/04/23 08:44:59;;;;;;;0.50;0.50;;;14.40;99.90;;;;;;5026005;28;20053;-63
2023/04/23 08:47:28;;;;;;;0.85;0.85;;;14.60;99.90;;;;;;5025554;28;20069;-63
2023/04/23 08:49:54;;;;;;;1.85;1.33;;;14.50;99.90;;;;;;5029552;28;20041;-63
2023/04/23 08:52:28;;;;;;;1.75;1.65;;;14.40;99.90;;;;;;5031802;28;20057;-63
2023/04/23 08:54:55;;;;;;;1.35;1.33;;;14.10;99.90;;;;;;5022535;28;20125;-63
2023/04/23 08:57:22;;;;;;;2.13;1.55;;;14.10;99.90;;;;;;5055499;28;20084;-63
2023/04/23 08:59:47;;;;;;;1.95;1.85;;;14.70;99.90;;;;;;5029646;28;20175;-63
2023/04/23 09:02:15;;;;;;;0.20;0.20;;;15.30;99.90;;;;;;5020676;28;20467;-64
2023/04/23 09:04:41;;;;;;;0.57;0.57;;;15.10;99.90;;;;;;5032024;28;20489;-64
2023/04/23 09:07:13;;;;;;;0.10;0.10;;;15.70;99.90;;;;;;5023920;28;20084;-64
2023/04/23 09:09:39;;;;;;;0.73;0.73;;;16.10;99.90;;;;;;5026714;28;20046;-64
2023/04/23 09:12:07;;;;;;;0.50;0.50;;;16.10;99.90;;;;;;5032574;28;20116;-64
2023/04/23 09:14:34;;;;;;;1.38;0.95;;;15.60;99.90;;;;;;5022016;28;20045;-64
2023/04/23 09:17:01;;;;;;;0.98;0.95;;;15.40;99.90;;;;;;5025748;28;20037;-63
2023/04/23 09:19:27;;;;;;;3.15;1.35;;;15.50;99.90;;;;;;5026277;28;20046;-64
2023/04/23 09:21:53;;;;;;;1.90;1.75;;;15.70;99.90;;;;;;5028392;28;20037;-63
2023/04/23 09:24:21;;;;;;;0.85;0.73;;;15.70;99.90;;;;;;5022470;28;20042;-64
2023/04/23 09:26:49;;;;;;;0.73;0.73;;;15.90;99.90;;;;;;5030200;28;20048;-64
2023/04/23 09:29:17;;;;;;;1.10;0.70;;;16.30;99.90;;;;;;5030596;28;20046;-64
2023/04/23 09:31:48;;;;;;;0.85;0.85;;;16.50;99.90;;;;;;5016929;28;20468;-64
2023/04/23 09:34:18;;;;;;;0.43;0.43;;;16.80;99.90;;;;;;5025026;28;20042;-64
2023/04/23 09:36:45;;;;;;;0.20;0.20;;;16.50;99.90;;;;;;5033629;28;20052;-64
2023/04/23 09:39:15;;;;;;;1.55;1.02;;;16.50;99.90;;;;;;5022318;28;20091;-64
2023/04/23 09:41:41;;;;;;;0.75;0.75;;;16.20;99.90;;;;;;5018164;28;20049;-64
2023/04/23 09:44:07;;;;;;;1.42;1.33;;;16.10;99.90;;;;;;5021081;28;20052;-64
2023/04/23 09:46:41;;;;;;;0.10;0.10;;;16.00;99.90;;;;;;5019452;28;20085;-64
2023/04/23 09:49:07;;;;;;;;;;;15.60;99.90;;;;;;5019471;28;20113;-64
2023/04/23 09:51:40;;;;;;;0.93;0.85;;;15.90;99.90;;;;;;5030665;28;19921;-63
2023/04/23 09:54:14;;;;;;;0.30;0.30;;;16.30;99.90;;;;;;5029595;28;20049;-64
2023/04/23 09:56:41;;;;;;;0.73;0.73;;;16.70;99.90;;;;;;5021169;28;20052;-63
2023/04/23 09:59:21;;;;;;;1.23;1.13;;;16.50;99.90;;;;;;5022726;28;20067;-62
2023/04/23 10:01:46;;;;;;;2.65;1.55;;;16.90;99.90;;;;;;5024343;28;20051;-64
2023/04/23 10:04:18;;;;;;;0.30;0.30;;;16.90;99.90;;;;;;5031039;28;20124;-64
2023/04/23 10:06:43;;;;;;;0.22;0.22;;;17.20;99.90;;;;;;5024109;28;20042;-64
2023/04/23 10:09:09;;;;;;;1.73;1.20;;;16.90;99.90;;;;;;5020150;28;20042;-63
2023/04/23 10:11:35;;;;;;;0.82;0.82;;;16.70;99.90;;;;;;5029008;28;20128;-63
2023/04/23 10:14:02;;;;;;;0.20;0.20;;;16.60;99.90;;;;;;5019615;28;20042;-64
2023/04/23 10:16:28;;;;;;;0.35;0.35;;;16.70;99.90;;;;;;5039448;28;20107;-62
2023/04/23 10:18:55;;;;;;;0.30;0.30;;;16.90;99.90;;;;;;5021621;28;20068;-63
2023/04/23 10:21:27;;;;;;;0.47;0.47;;;16.80;99.90;;;;;;5027101;28;20049;-63
2023/04/23 10:23:55;;;;;;;1.02;0.98;;;16.70;99.90;;;;;;5020486;28;20096;-63
2023/04/23 10:26:23;;;;;;;0.75;0.73;;;16.70;99.90;;;;;;5020711;28;20045;-63
2023/04/23 10:28:53;;;;;;;0.47;0.47;;;16.80;99.90;;;;;;5016356;28;20034;-63
2023/04/23 10:31:19;;;;;;;0.95;0.95;;;16.90;99.90;;;;;;5017713;28;20103;-63
2023/04/23 10:33:47;;;;;;;0.10;0.10;;;16.90;99.90;;;;;;5026651;28;20093;-61
2023/04/23 10:36:14;;;;;;;0.00;0.00;;;17.20;99.90;;;;;;5015176;28;20053;-64
2023/04/23 10:38:40;;;;;;;0.68;0.60;;;17.30;99.90;;;;;;5022735;28;20088;-63
2023/04/23 10:41:08;;;;;;;0.47;0.47;;;17.40;99.90;;;;;;5029929;28;20042;-63
2023/04/23 10:43:34;;;;;;;0.10;0.10;;;17.40;99.90;;;;;;5016309;28;20046;-63
2023/04/23 10:46:00;;;;;;;0.68;0.60;;;17.10;99.90;;;;;;5017231;28;20045;-63
2023/04/23 10:48:28;;;;;;;1.90;1.75;;;17.20;99.90;;;;;;5015013;28;20104;-63
2023/04/23 10:51:00;;;;;;;0.65;0.60;;;17.30;99.90;;;;;;5027796;28;20044;-63
2023/04/23 10:53:30;;;;;;;0.32;0.32;;;17.40;99.90;;;;;;5027865;28;20046;-64
2023/04/23 10:56:06;;;;;;;0.00;0.00;;;17.30;99.90;;;;;;5016205;28;20081;-63
2023/04/23 10:58:49;;;;;;;0.20;0.20;;;17.50;99.90;;;;;;5022049;28;20045;-63
2023/04/23 11:01:17;;;;;;;0.17;0.17;;;17.70;99.90;;;;;;5025845;28;20044;-64
2023/04/23 11:03:43;;;;;;;0.50;0.50;;;17.70;99.90;;;;;;5017792;28;20787;-63
2023/04/23 11:06:18;;;;;;;0.15;0.15;;;17.60;99.90;;;;;;5022213;28;20052;-64
2023/04/23 11:08:55;;;;;;;5.15;0.47;;;17.70;99.90;;;;;;5022396;28;20082;-63
2023/04/23 11:11:39;;;;;;;0.85;0.85;;;18.00;99.90;;;;;;5019362;28;20045;-63
2023/04/23 11:14:13;;;;;;;2.13;1.85;;;18.10;99.90;;;;;;5016496;28;20539;-63
2023/04/23 11:16:38;;;;;;;1.10;0.82;;;18.10;99.90;;;;;;5029222;28;20041;-64
2023/04/23 11:19:11;;;;;;;0.63;0.63;;;18.40;99.90;;;;;;5029993;28;20052;-63
2023/04/23 11:21:59;;;;;;;0.20;0.20;;;17.90;99.90;;;;;;5021943;28;20762;-63
2023/04/23 11:24:41;;;;;;;0.10;0.10;;;17.80;99.90;;;;;;5026212;28;20040;-63
2023/04/23 11:27:09;;;;;;;0.55;0.47;;;17.90;99.90;;;;;;5015136;28;20037;-63
2023/04/23 11:29:40;;;;;;;0.10;0.10;;;18.10;99.90;;;;;;5019999;28;20077;-63
2023/04/23 11:32:12;;;;;;;0.10;0.10;;;18.10;99.90;;;;;;5027301;28;20056;-63
2023/04/23 11:34:42;;;;;;;0.15;0.15;;;18.20;99.90;;;;;;5018603;28;20389;-63
2023/04/23 11:37:15;;;;;;;1.20;0.47;;;18.30;99.90;;;;;;5021180;28;20046;-63
2023/04/23 11:39:42;;;;;;;0.15;0.15;;;18.30;99.90;;;;;;5023366;28;20080;-63
2023/04/23 11:42:12;;;;;;;0.10;0.10;;;18.30;99.90;;;;;;5026038;28;20038;-64
2023/04/23 11:44:42;;;;;;;0.73;0.38;;;18.20;99.90;;;;;;5021500;28;20501;-63
2023/04/23 11:47:11;;;;;;;0.43;0.43;;;18.50;99.90;;;;;;5026259;28;20722;-63
2023/04/23 11:49:38;;;;;;;0.00;0.00;;;18.60;99.90;;;;;;5020188;28;20608;-63
2023/04/23 11:52:04;;;;;;;0.30;0.25;;;18.80;99.90;;;;;;5018193;28;20102;-62
2023/04/23 11:54:30;;;;;;;0.20;0.20;;;18.50;99.90;;;;;;5020777;28;20045;-63
2023/04/23 11:56:57;;;;;;;0.88;0.88;;;18.60;99.90;;;;;;5029813;28;20040;-63
2023/04/23 11:59:22;;;;;;;0.30;0.30;;;18.20;99.90;;;;;;5033769;28;20401;-62
2023/04/23 12:01:50;;;;;;;0.00;0.00;;;18.40;99.90;;;;;;5032182;28;20041;-63
2023/04/23 12:04:21;;;;;;;0.00;0.00;;;18.20;99.90;;;;;;5023064;28;20052;-63
2023/04/23 12:06:48;;;;;;;0.30;0.30;;;18.10;99.90;;;;;;5029541;28;20393;-63
2023/04/23 12:09:15;;;;;;;0.00;0.00;;;18.10;99.90;;;;;;5032843;28;20494;-63
2023/04/23 12:11:42;;;;;;;0.50;0.50;;;18.10;99.90;;;;;;5026497;28;20157;-63
2023/04/23 12:14:09;;;;;;;0.20;0.20;;;18.10;99.90;;;;;;5022128;28;20057;-63
2023/04/23 12:16:42;;;;;;;0.40;0.30;;;18.20;99.90;;;;;;5022287;28;20048;-62
2023/04/23 12:19:16;;;;;;;0.00;0.00;;;18.30;99.90;;;;;;5026671;28;20053;-63
2023/04/23 12:21:53;;;;;;;1.08;0.52;;;18.30;99.90;;;;;;5016104;28;20038;-63
2023/04/23 12:24:23;;;;;;;0.10;0.10;;;18.50;99.90;;;;;;5022499;28;20057;-63
2023/04/23 12:26:53;;;;;;;0.45;0.43;;;19.10;99.90;;;;;;5020114;28;20053;-63
2023/04/23 12:29:21;;;;;;;0.45;0.20;;;19.10;99.90;;;;;;5024613;28;20037;-63
2023/04/23 12:31:47;;;;;;;4.40;1.38;;;19.40;99.90;;;;;;5031250;28;20484;-63
2023/04/23 12:34:15;;;;;;;0.00;0.00;;;19.40;99.90;;;;;;5031031;28;20123;-63
2023/04/23 12:36:44;;;;;;;0.20;0.20;;;19.40;99.90;;;;;;5022997;28;20049;-63
2023/04/23 12:39:28;;;;;;;0.00;0.00;;;19.40;99.90;;;;;;5027359;28;20404;-63
2023/04/23 12:42:03;;;;;;;0.28;0.13;;;19.50;99.90;;;;;;5021593;28;20394;-63
2023/04/23 12:44:30;;;;;;;0.00;0.00;;;19.40;99.90;;;;;;5023454;28;20053;-63
2023/04/23 12:47:14;;;;;;;0.00;0.00;;;19.40;99.90;;;;;;5022222;28;20409;-63
2023/04/23 12:49:41;;;;;;;0.32;0.25;;;19.30;99.90;;;;;;5026448;28;20076;-63
2023/04/23 12:52:07;;;;;;;0.00;0.00;;;19.10;99.90;;;;;;5030061;28;20132;-63